sensor_id;sensor_type;location;lat;lon;timestamp;pressure;altitude;pressure_sealevel;temperature;humidity
33422;BME280;19763;55.798;37.782;2023-05-22T00:00:41;150438.03;;;12.53;79.60
33422;BME280;19763;55.798;37.782;2023-05-22T00:03:06;150450.84;;;12.58;80.42
33422;BME280;19763;55.798;37.782;2023-05-22T00:05:32;150448.31;;;12.57;79.76
33422;BME280;19763;55.798;37.782;2023-05-22T00:08:08;150467.56;;;12.65;78.83
33422;BME280;19763;55.798;37.782;2023-05-22T00:10:37;150475.25;;;12.68;79.46
33422;BME280;19763;55.798;37.782;2023-05-22T00:13:03;150480.41;;;12.70;78.42
33422;BME280;19763;55.798;37.782;2023-05-22T00:15:29;150488.13;;;12.73;78.73
33422;BME280;19763;55.798;37.782;2023-05-22T00:17:54;150488.13;;;12.73;78.68
33422;BME280;19763;55.798;37.782;2023-05-22T00:20:20;150507.38;;;12.81;78.40
33422;BME280;19763;55.798;37.782;2023-05-22T00:22:46;150499.66;;;12.77;78.37
33422;BME280;19763;55.798;37.782;2023-05-22T00:25:14;150493.22;;;12.75;77.68
33422;BME280;19763;55.798;37.782;2023-05-22T00:27:42;150503.50;;;12.79;77.73
33422;BME280;19763;55.798;37.782;2023-05-22T00:30:08;150482.94;;;12.71;78.40
33422;BME280;19763;55.798;37.782;2023-05-22T00:32:34;150482.94;;;12.71;78.12
33422;BME280;19763;55.798;37.782;2023-05-22T00:35:00;150464.97;;;12.64;78.29
33422;BME280;19763;55.798;37.782;2023-05-22T00:37:25;150471.41;;;12.66;78.42
33422;BME280;19763;55.798;37.782;2023-05-22T00:39:51;150475.25;;;12.68;77.88
33422;BME280;19763;55.798;37.782;2023-05-22T00:42:17;150457.28;;;12.60;78.38
33422;BME280;19763;55.798;37.782;2023-05-22T00:44:42;150472.66;;;12.67;78.61
33422;BME280;19763;55.798;37.782;2023-05-22T00:47:08;150472.66;;;12.67;78.30
33422;BME280;19763;55.798;37.782;2023-05-22T00:49:34;150464.97;;;12.64;78.22
33422;BME280;19763;55.798;37.782;2023-05-22T00:52:00;150440.56;;;12.54;78.77
33422;BME280;19763;55.798;37.782;2023-05-22T00:54:25;150426.44;;;12.48;78.68
33422;BME280;19763;55.798;37.782;2023-05-22T00:56:51;150423.91;;;12.47;78.40
33422;BME280;19763;55.798;37.782;2023-05-22T00:59:17;150408.47;;;12.41;77.76
33422;BME280;19763;55.798;37.782;2023-05-22T01:01:43;150420.06;;;12.46;78.32
33422;BME280;19763;55.798;37.782;2023-05-22T01:04:10;150390.47;;;12.34;77.92
33422;BME280;19763;55.798;37.782;2023-05-22T01:06:36;150393.06;;;12.35;78.88
33422;BME280;19763;55.798;37.782;2023-05-22T01:09:02;150399.50;;;12.37;79.51
33422;BME280;19763;55.798;37.782;2023-05-22T01:14:54;150395.66;;;12.36;79.47
33422;BME280;19763;55.798;37.782;2023-05-22T01:31:00;150343.00;;;12.15;79.90
33422;BME280;19763;55.798;37.782;2023-05-22T01:33:31;150328.88;;;12.09;79.74
33422;BME280;19763;55.798;37.782;2023-05-22T01:35:59;150325.00;;;12.07;80.20
33422;BME280;19763;55.798;37.782;2023-05-22T01:38:26;150328.88;;;12.09;79.04
33422;BME280;19763;55.798;37.782;2023-05-22T01:40:53;150328.88;;;12.09;80.21
33422;BME280;19763;55.798;37.782;2023-05-22T01:43:21;150333.97;;;12.11;79.66
33422;BME280;19763;55.798;37.782;2023-05-22T01:45:46;150333.97;;;12.11;78.81
33422;BME280;19763;55.798;37.782;2023-05-22T01:48:12;150335.28;;;12.12;79.64
33422;BME280;19763;55.798;37.782;2023-05-22T01:50:38;150336.56;;;12.12;80.07
33422;BME280;19763;55.798;37.782;2023-05-22T01:53:39;150325.00;;;12.07;80.92
33422;BME280;19763;55.798;37.782;2023-05-22T01:56:14;150310.88;;;12.02;80.85
33422;BME280;19763;55.798;37.782;2023-05-22T01:58:45;150294.19;;;11.95;81.14
33422;BME280;19763;55.798;37.782;2023-05-22T02:01:15;150299.34;;;11.97;80.95
33422;BME280;19763;55.798;37.782;2023-05-22T02:03:42;150305.72;;;12.00;80.64
33422;BME280;19763;55.798;37.782;2023-05-22T02:06:12;150277.44;;;11.88;80.71
33422;BME280;19763;55.798;37.782;2023-05-22T02:08:40;150278.75;;;11.89;78.70
33422;BME280;19763;55.798;37.782;2023-05-22T02:11:07;150308.31;;;12.01;79.13
33422;BME280;19763;55.798;37.782;2023-05-22T02:13:34;150325.00;;;12.07;79.07
33422;BME280;19763;55.798;37.782;2023-05-22T02:16:00;150318.59;;;12.05;79.83
33422;BME280;19763;55.798;37.782;2023-05-22T02:18:27;150328.88;;;12.09;80.12
33422;BME280;19763;55.798;37.782;2023-05-22T02:20:59;150319.84;;;12.05;80.20
33422;BME280;19763;55.798;37.782;2023-05-22T02:23:25;150296.78;;;11.96;79.36
33422;BME280;19763;55.798;37.782;2023-05-22T02:25:54;150322.44;;;12.06;76.49
33422;BME280;19763;55.798;37.782;2023-05-22T02:28:20;150336.56;;;12.12;76.03
33422;BME280;19763;55.798;37.782;2023-05-22T02:30:46;150362.22;;;12.22;77.80
33422;BME280;19763;55.798;37.782;2023-05-22T02:33:11;150346.84;;;12.16;77.27
33422;BME280;19763;55.798;37.782;2023-05-22T02:35:37;150336.56;;;12.12;74.69
33422;BME280;19763;55.798;37.782;2023-05-22T02:38:02;150333.97;;;12.11;75.48
33422;BME280;19763;55.798;37.782;2023-05-22T02:40:28;150359.69;;;12.21;74.78
33422;BME280;19763;55.798;37.782;2023-05-22T02:42:54;150376.34;;;12.28;75.48
33422;BME280;19763;55.798;37.782;2023-05-22T02:45:19;150339.13;;;12.13;74.55
33422;BME280;19763;55.798;37.782;2023-05-22T02:47:45;150364.81;;;12.23;75.45
33422;BME280;19763;55.798;37.782;2023-05-22T02:50:11;150238.97;;;11.73;76.30
33422;BME280;19763;55.798;37.782;2023-05-22T02:52:37;150285.19;;;11.91;76.69
33422;BME280;19763;55.798;37.782;2023-05-22T02:55:04;150232.53;;;11.70;77.34
33422;BME280;19763;55.798;37.782;2023-05-22T02:57:30;150269.75;;;11.85;77.92
33422;BME280;19763;55.798;37.782;2023-05-22T02:59:56;150295.50;;;11.96;77.29
33422;BME280;19763;55.798;37.782;2023-05-22T03:02:24;150292.91;;;11.95;76.68
33422;BME280;19763;55.798;37.782;2023-05-22T03:04:50;150282.59;;;11.90;77.49
33422;BME280;19763;55.798;37.782;2023-05-22T03:07:16;150276.16;;;11.88;77.95
33422;BME280;19763;55.798;37.782;2023-05-22T03:09:41;150321.16;;;12.06;77.53
33422;BME280;19763;55.798;37.782;2023-05-22T03:12:07;150346.84;;;12.16;77.21
33422;BME280;19763;55.798;37.782;2023-05-22T03:14:33;150323.69;;;12.07;77.97
33422;BME280;19763;55.798;37.782;2023-05-22T03:16:59;150359.69;;;12.21;77.25
33422;BME280;19763;55.798;37.782;2023-05-22T03:19:25;150362.22;;;12.22;78.00
33422;BME280;19763;55.798;37.782;2023-05-22T03:21:51;150387.94;;;12.33;77.25
33422;BME280;19763;55.798;37.782;2023-05-22T03:24:16;150366.06;;;12.24;78.11
33422;BME280;19763;55.798;37.782;2023-05-22T03:26:42;150376.34;;;12.28;78.27
33422;BME280;19763;55.798;37.782;2023-05-22T03:29:08;150391.78;;;12.34;78.98
33422;BME280;19763;55.798;37.782;2023-05-22T03:31:33;150367.38;;;12.24;79.27
33422;BME280;19763;55.798;37.782;2023-05-22T03:33:59;150349.41;;;12.17;80.77
33422;BME280;19763;55.798;37.782;2023-05-22T03:36:25;150340.41;;;12.14;81.13
33422;BME280;19763;55.798;37.782;2023-05-22T03:38:51;150331.44;;;12.10;81.80
33422;BME280;19763;55.798;37.782;2023-05-22T03:41:17;150291.59;;;11.94;82.82
33422;BME280;19763;55.798;37.782;2023-05-22T03:43:42;150268.47;;;11.85;82.83
33422;BME280;19763;55.798;37.782;2023-05-22T03:46:08;150303.19;;;11.99;83.30
33422;BME280;19763;55.798;37.782;2023-05-22T03:48:35;150244.09;;;11.75;83.80
33422;BME280;19763;55.798;37.782;2023-05-22T03:51:01;150246.66;;;11.76;85.20
33422;BME280;19763;55.798;37.782;2023-05-22T03:53:26;150305.72;;;12.00;83.91
33422;BME280;19763;55.798;37.782;2023-05-22T03:55:52;150313.47;;;12.03;84.66
33422;BME280;19763;55.798;37.782;2023-05-22T03:58:17;150333.97;;;12.11;83.85
33422;BME280;19763;55.798;37.782;2023-05-22T04:00:43;150317.31;;;12.04;85.03
33422;BME280;19763;55.798;37.782;2023-05-22T04:03:10;150304.47;;;11.99;86.15
33422;BME280;19763;55.798;37.782;2023-05-22T04:05:40;150343.00;;;12.15;85.91
33422;BME280;19763;55.798;37.782;2023-05-22T04:08:06;150360.97;;;12.22;85.49
33422;BME280;19763;55.798;37.782;2023-05-22T04:10:31;150336.56;;;12.12;86.29
33422;BME280;19763;55.798;37.782;2023-05-22T04:12:58;150380.19;;;12.30;86.21
33422;BME280;19763;55.798;37.782;2023-05-22T04:15:23;150421.31;;;12.46;84.71
33422;BME280;19763;55.798;37.782;2023-05-22T04:17:49;150420.06;;;12.46;85.90
33422;BME280;19763;55.798;37.782;2023-05-22T04:20:15;150391.78;;;12.34;87.59
33422;BME280;19763;55.798;37.782;2023-05-22T04:22:42;150422.59;;;12.47;86.27
33422;BME280;19763;55.798;37.782;2023-05-22T04:25:10;150476.53;;;12.68;85.72
33422;BME280;19763;55.798;37.782;2023-05-22T04:27:35;150471.41;;;12.66;86.15
33422;BME280;19763;55.798;37.782;2023-05-22T04:30:02;150511.22;;;12.82;85.94
33422;BME280;19763;55.798;37.782;2023-05-22T04:32:29;150506.09;;;12.80;86.58
33422;BME280;19763;55.798;37.782;2023-05-22T04:34:55;150531.78;;;12.90;85.81
33422;BME280;19763;55.798;37.782;2023-05-22T04:37:23;150565.16;;;13.04;86.39
33422;BME280;19763;55.798;37.782;2023-05-22T04:39:50;150596.03;;;13.16;86.46
33422;BME280;19763;55.798;37.782;2023-05-22T04:42:17;150584.47;;;13.11;87.84
33422;BME280;19763;55.798;37.782;2023-05-22T04:44:43;150585.72;;;13.12;87.47
33422;BME280;19763;55.798;37.782;2023-05-22T04:47:09;150616.59;;;13.24;87.12
33422;BME280;19763;55.798;37.782;2023-05-22T04:49:42;150629.41;;;13.29;88.08
33422;BME280;19763;55.798;37.782;2023-05-22T04:52:07;150641.00;;;13.34;88.19
33422;BME280;19763;55.798;37.782;2023-05-22T04:54:36;150664.16;;;13.43;88.39
33422;BME280;19763;55.798;37.782;2023-05-22T04:57:02;150656.47;;;13.40;89.69
33422;BME280;19763;55.798;37.782;2023-05-22T04:59:34;150630.72;;;13.30;90.42
33422;BME280;19763;55.798;37.782;2023-05-22T05:02:03;150659.06;;;13.41;89.89
33422;BME280;19763;55.798;37.782;2023-05-22T05:04:29;150652.63;;;13.39;90.59
33422;BME280;19763;55.798;37.782;2023-05-22T05:06:55;150677.03;;;13.49;90.73
33422;BME280;19763;55.798;37.782;2023-05-22T05:09:24;150671.88;;;13.46;91.29
33422;BME280;19763;55.798;37.782;2023-05-22T05:11:51;150617.84;;;13.25;92.87
33422;BME280;19763;55.798;37.782;2023-05-22T05:14:17;150635.84;;;13.32;93.92
33422;BME280;19763;55.798;37.782;2023-05-22T05:16:43;150601.19;;;13.18;94.16
33422;BME280;19763;55.798;37.782;2023-05-22T05:19:09;150673.19;;;13.47;92.95
33422;BME280;19763;55.798;37.782;2023-05-22T05:21:35;150677.03;;;13.49;93.37
33422;BME280;19763;55.798;37.782;2023-05-22T05:24:01;150662.91;;;13.43;93.77
33422;BME280;19763;55.798;37.782;2023-05-22T05:26:27;150670.59;;;13.46;93.61
33422;BME280;19763;55.798;37.782;2023-05-22T05:28:52;150630.72;;;13.30;95.01
33422;BME280;19763;55.798;37.782;2023-05-22T05:31:18;150657.72;;;13.41;94.96
33422;BME280;19763;55.798;37.782;2023-05-22T05:33:48;150660.31;;;13.42;95.49
33422;BME280;19763;55.798;37.782;2023-05-22T05:36:14;150673.19;;;13.47;95.91
33422;BME280;19763;55.798;37.782;2023-05-22T05:38:40;150678.31;;;13.49;95.91
33422;BME280;19763;55.798;37.782;2023-05-22T05:41:06;150698.88;;;13.57;96.08
33422;BME280;19763;55.798;37.782;2023-05-22T05:43:32;150686.00;;;13.52;95.72
33422;BME280;19763;55.798;37.782;2023-05-22T05:45:58;150709.16;;;13.61;94.72
33422;BME280;19763;55.798;37.782;2023-05-22T05:48:23;150698.88;;;13.57;95.52
33422;BME280;19763;55.798;37.782;2023-05-22T05:50:49;150709.16;;;13.61;95.84
33422;BME280;19763;55.798;37.782;2023-05-22T05:53:14;150697.63;;;13.57;96.25
33422;BME280;19763;55.798;37.782;2023-05-22T05:55:40;150677.03;;;13.49;96.68
33422;BME280;19763;55.798;37.782;2023-05-22T05:58:06;150677.03;;;13.49;96.28
33422;BME280;19763;55.798;37.782;2023-05-22T06:00:31;150647.50;;;13.37;97.11
33422;BME280;19763;55.798;37.782;2023-05-22T06:02:57;150665.50;;;13.44;98.09
33422;BME280;19763;55.798;37.782;2023-05-22T06:05:23;150683.47;;;13.51;97.58
33422;BME280;19763;55.798;37.782;2023-05-22T06:07:49;150688.59;;;13.53;97.80
33422;BME280;19763;55.798;37.782;2023-05-22T06:10:14;150706.59;;;13.60;97.46
33422;BME280;19763;55.798;37.782;2023-05-22T06:12:40;150706.59;;;13.60;97.51
33422;BME280;19763;55.798;37.782;2023-05-22T06:15:06;150718.16;;;13.65;97.89
33422;BME280;19763;55.798;37.782;2023-05-22T06:17:33;150646.19;;;13.36;99.30
33422;BME280;19763;55.798;37.782;2023-05-22T06:19:59;150646.19;;;13.36;100.00
33422;BME280;19763;55.798;37.782;2023-05-22T06:22:25;150639.69;;;13.34;100.00
33422;BME280;19763;55.798;37.782;2023-05-22T06:24:51;150675.72;;;13.48;100.00
33422;BME280;19763;55.798;37.782;2023-05-22T06:27:21;150639.69;;;13.34;100.00
33422;BME280;19763;55.798;37.782;2023-05-22T06:29:51;150700.16;;;13.58;99.25
33422;BME280;19763;55.798;37.782;2023-05-22T06:32:17;150724.59;;;13.68;99.45
33422;BME280;19763;55.798;37.782;2023-05-22T06:34:46;150733.59;;;13.71;99.80
33422;BME280;19763;55.798;37.782;2023-05-22T06:37:12;150731.03;;;13.70;100.00
33422;BME280;19763;55.798;37.782;2023-05-22T06:39:38;150751.59;;;13.78;99.67
33422;BME280;19763;55.798;37.782;2023-05-22T06:42:04;150768.28;;;13.85;99.03
33422;BME280;19763;55.798;37.782;2023-05-22T06:44:30;150765.75;;;13.84;99.70
33422;BME280;19763;55.798;37.782;2023-05-22T06:46:56;150758.03;;;13.81;100.00
33422;BME280;19763;55.798;37.782;2023-05-22T06:49:22;150731.03;;;13.70;99.90
33422;BME280;19763;55.798;37.782;2023-05-22T06:51:48;150756.72;;;13.80;99.59
33422;BME280;19763;55.798;37.782;2023-05-22T06:54:13;150758.03;;;13.81;100.00
33422;BME280;19763;55.798;37.782;2023-05-22T06:56:42;150770.88;;;13.86;100.00
33422;BME280;19763;55.798;37.782;2023-05-22T06:59:09;150765.75;;;13.84;100.00
33422;BME280;19763;55.798;37.782;2023-05-22T07:01:36;150777.28;;;13.89;100.00
33422;BME280;19763;55.798;37.782;2023-05-22T07:04:01;150763.16;;;13.83;100.00
33422;BME280;19763;55.798;37.782;2023-05-22T07:06:32;150808.16;;;14.01;100.00
33422;BME280;19763;55.798;37.782;2023-05-22T07:08:58;150810.72;;;14.02;100.00
33422;BME280;19763;55.798;37.782;2023-05-22T07:11:24;150860.84;;;14.22;99.70
33422;BME280;19763;55.798;37.782;2023-05-22T07:13:50;150881.44;;;14.30;99.62
33422;BME280;19763;55.798;37.782;2023-05-22T07:16:16;150904.63;;;14.40;99.63
33422;BME280;19763;55.798;37.782;2023-05-22T07:18:41;150913.59;;;14.43;100.00
33422;BME280;19763;55.798;37.782;2023-05-22T07:21:10;150943.22;;;14.55;99.12
33422;BME280;19763;55.798;37.782;2023-05-22T07:23:36;150979.28;;;14.70;98.70
33422;BME280;19763;55.798;37.782;2023-05-22T07:26:01;151012.69;;;14.83;99.59
33422;BME280;19763;55.798;37.782;2023-05-22T07:28:28;151025.59;;;14.88;99.07
33422;BME280;19763;55.798;37.782;2023-05-22T07:30:54;151048.72;;;14.97;98.59
33422;BME280;19763;55.798;37.782;2023-05-22T07:33:19;151097.63;;;15.17;98.99
33422;BME280;19763;55.798;37.782;2023-05-22T07:35:45;151110.50;;;15.22;99.40
33422;BME280;19763;55.798;37.782;2023-05-22T07:38:10;151079.63;;;15.10;97.41
33422;BME280;19763;55.798;37.782;2023-05-22T07:40:36;151095.03;;;15.16;97.80
33422;BME280;19763;55.798;37.782;2023-05-22T07:43:01;151082.19;;;15.11;98.76
33422;BME280;19763;55.798;37.782;2023-05-22T07:45:27;151070.59;;;15.06;97.31
33422;BME280;19763;55.798;37.782;2023-05-22T07:47:53;151064.19;;;15.04;99.13
33422;BME280;19763;55.798;37.782;2023-05-22T07:50:18;151079.63;;;15.10;97.63
33422;BME280;19763;55.798;37.782;2023-05-22T07:52:44;151105.34;;;15.20;97.51
33422;BME280;19763;55.798;37.782;2023-05-22T07:55:10;151096.34;;;15.16;97.28
33422;BME280;19763;55.798;37.782;2023-05-22T07:57:37;151088.59;;;15.13;98.41
33422;BME280;19763;55.798;37.782;2023-05-22T08:00:03;151131.06;;;15.30;97.59
33422;BME280;19763;55.798;37.782;2023-05-22T08:02:38;151141.38;;;15.34;97.51
33422;BME280;19763;55.798;37.782;2023-05-22T08:05:04;151171.00;;;15.46;99.12
33422;BME280;19763;55.798;37.782;2023-05-22T08:07:30;151190.28;;;15.54;96.61
33422;BME280;19763;55.798;37.782;2023-05-22T08:09:57;151254.69;;;15.80;96.64
33422;BME280;19763;55.798;37.782;2023-05-22T08:12:23;151284.31;;;15.92;96.09
33422;BME280;19763;55.798;37.782;2023-05-22T08:14:48;151319.06;;;16.05;96.12
33422;BME280;19763;55.798;37.782;2023-05-22T08:17:14;151331.97;;;16.11;96.04
33422;BME280;19763;55.798;37.782;2023-05-22T08:19:40;151352.59;;;16.19;96.27
33422;BME280;19763;55.798;37.782;2023-05-22T08:22:05;151362.84;;;16.23;96.03
33422;BME280;19763;55.798;37.782;2023-05-22T08:24:31;151368.03;;;16.25;95.45
33422;BME280;19763;55.798;37.782;2023-05-22T08:26:57;151338.41;;;16.13;94.77
33422;BME280;19763;55.798;37.782;2023-05-22T08:29:23;151358.97;;;16.21;93.08
33422;BME280;19763;55.798;37.782;2023-05-22T08:31:49;151386.06;;;16.32;92.47
33422;BME280;19763;55.798;37.782;2023-05-22T08:34:14;151396.34;;;16.36;92.20
33422;BME280;19763;55.798;37.782;2023-05-22T08:36:40;151416.97;;;16.45;92.55
33422;BME280;19763;55.798;37.782;2023-05-22T08:39:08;151423.38;;;16.47;91.61
33422;BME280;19763;55.798;37.782;2023-05-22T08:41:34;151456.91;;;16.61;91.81
33422;BME280;19763;55.798;37.782;2023-05-22T08:44:00;151474.94;;;16.68;91.96
33422;BME280;19763;55.798;37.782;2023-05-22T08:46:25;151471.06;;;16.66;92.04
33422;BME280;19763;55.798;37.782;2023-05-22T08:48:55;151482.66;;;16.71;91.92
33422;BME280;19763;55.798;37.782;2023-05-22T08:51:21;151503.28;;;16.79;90.66
33422;BME280;19763;55.798;37.782;2023-05-22T08:53:50;151496.81;;;16.77;89.85
33422;BME280;19763;55.798;37.782;2023-05-22T08:56:17;151504.53;;;16.80;90.82
33422;BME280;19763;55.798;37.782;2023-05-22T08:58:43;151513.59;;;16.83;90.33
33422;BME280;19763;55.798;37.782;2023-05-22T09:01:10;151496.81;;;16.77;89.53
33422;BME280;19763;55.798;37.782;2023-05-22T09:03:36;151481.38;;;16.70;89.18
33422;BME280;19763;55.798;37.782;2023-05-22T09:06:02;151531.66;;;16.90;90.34
33422;BME280;19763;55.798;37.782;2023-05-22T09:08:28;151561.28;;;17.02;90.21
33422;BME280;19763;55.798;37.782;2023-05-22T09:10:54;151589.66;;;17.14;89.67
33422;BME280;19763;55.798;37.782;2023-05-22T09:13:28;151608.97;;;17.21;88.81
33422;BME280;19763;55.798;37.782;2023-05-22T09:15:58;151627.00;;;17.29;88.86
33422;BME280;19763;55.798;37.782;2023-05-22T09:18:28;151638.63;;;17.33;89.15
33422;BME280;19763;55.798;37.782;2023-05-22T09:20:57;151634.75;;;17.32;87.02
33422;BME280;19763;55.798;37.782;2023-05-22T09:23:26;151611.53;;;17.22;89.05
33422;BME280;19763;55.798;37.782;2023-05-22T09:25:56;151632.19;;;17.31;88.45
33422;BME280;19763;55.798;37.782;2023-05-22T09:28:22;151667.00;;;17.45;88.91
33422;BME280;19763;55.798;37.782;2023-05-22T09:30:52;151651.50;;;17.38;88.67
33422;BME280;19763;55.798;37.782;2023-05-22T09:33:18;151657.94;;;17.41;87.89
33422;BME280;19763;55.798;37.782;2023-05-22T09:35:49;151685.03;;;17.52;87.85
33422;BME280;19763;55.798;37.782;2023-05-22T09:38:16;151630.91;;;17.30;85.48
33422;BME280;19763;55.798;37.782;2023-05-22T09:40:41;151682.44;;;17.51;85.90
33422;BME280;19763;55.798;37.782;2023-05-22T09:43:08;151641.19;;;17.34;86.55
33422;BME280;19763;55.798;37.782;2023-05-22T09:45:35;151663.13;;;17.43;85.56
33422;BME280;19763;55.798;37.782;2023-05-22T09:48:04;151708.22;;;17.61;85.27
33422;BME280;19763;55.798;37.782;2023-05-22T09:50:31;151705.66;;;17.60;84.28
33422;BME280;19763;55.798;37.782;2023-05-22T09:53:02;151686.31;;;17.52;83.87
33422;BME280;19763;55.798;37.782;2023-05-22T09:55:28;151710.81;;;17.62;84.32
33422;BME280;19763;55.798;37.782;2023-05-22T09:57:55;151663.13;;;17.43;83.87
33422;BME280;19763;55.798;37.782;2023-05-22T10:00:22;151646.34;;;17.36;84.63
33422;BME280;19763;55.798;37.782;2023-05-22T10:02:56;151652.81;;;17.39;85.77
33422;BME280;19763;55.798;37.782;2023-05-22T10:05:30;151629.59;;;17.30;84.33
33422;BME280;19763;55.798;37.782;2023-05-22T10:08:00;151667.00;;;17.45;83.31
33422;BME280;19763;55.798;37.782;2023-05-22T10:10:26;151643.75;;;17.35;85.22
33422;BME280;19763;55.798;37.782;2023-05-22T10:13:05;151715.94;;;17.64;85.42
33422;BME280;19763;55.798;37.782;2023-05-22T10:15:31;151730.13;;;17.70;85.20
33422;BME280;19763;55.798;37.782;2023-05-22T10:17:57;151744.31;;;17.75;84.60
33422;BME280;19763;55.798;37.782;2023-05-22T10:20:24;151705.66;;;17.60;83.55
33422;BME280;19763;55.798;37.782;2023-05-22T10:22:50;151695.34;;;17.56;82.93
33422;BME280;19763;55.798;37.782;2023-05-22T10:25:17;151700.47;;;17.58;83.77
33422;BME280;19763;55.798;37.782;2023-05-22T10:27:43;151754.63;;;17.80;83.70
33422;BME280;19763;55.798;37.782;2023-05-22T10:36:26;151820.44;;;18.06;83.16
33422;BME280;19763;55.798;37.782;2023-05-22T10:41:22;151843.66;;;18.15;82.95
33422;BME280;19763;55.798;37.782;2023-05-22T10:43:49;151864.28;;;18.23;82.95
33422;BME280;19763;55.798;37.782;2023-05-22T10:46:15;151878.47;;;18.29;82.13
33422;BME280;19763;55.798;37.782;2023-05-22T10:48:45;151882.34;;;18.31;82.70
33422;BME280;19763;55.798;37.782;2023-05-22T10:51:18;151877.19;;;18.28;83.29
33422;BME280;19763;55.798;37.782;2023-05-22T10:53:44;151900.38;;;18.38;82.91
33422;BME280;19763;55.798;37.782;2023-05-22T10:56:13;151883.63;;;18.31;82.26
33422;BME280;19763;55.798;37.782;2023-05-22T10:58:42;151902.97;;;18.39;83.41
33422;BME280;19763;55.798;37.782;2023-05-22T11:06:44;151908.13;;;18.41;82.31
33422;BME280;19763;55.798;37.782;2023-05-22T11:09:29;151962.28;;;18.62;81.77
33422;BME280;19763;55.798;37.782;2023-05-22T11:12:14;151992.00;;;18.74;81.56
33422;BME280;19763;55.798;37.782;2023-05-22T11:14:41;151968.75;;;18.65;82.00
33422;BME280;19763;55.798;37.782;2023-05-22T11:17:08;152006.19;;;18.80;81.62
33422;BME280;19763;55.798;37.782;2023-05-22T11:19:38;152026.84;;;18.88;81.90
33422;BME280;19763;55.798;37.782;2023-05-22T11:22:04;152013.91;;;18.83;81.69
33422;BME280;19763;55.798;37.782;2023-05-22T11:24:33;151976.47;;;18.68;80.11
33422;BME280;19763;55.798;37.782;2023-05-22T11:27:05;152004.88;;;18.79;80.00
33422;BME280;19763;55.798;37.782;2023-05-22T11:29:31;151999.72;;;18.77;80.22
33422;BME280;19763;55.798;37.782;2023-05-22T11:31:58;152035.91;;;18.92;80.40
33422;BME280;19763;55.798;37.782;2023-05-22T11:34:24;152047.50;;;18.96;79.71
33422;BME280;19763;55.798;37.782;2023-05-22T11:36:51;152050.09;;;18.97;79.55
33422;BME280;19763;55.798;37.782;2023-05-22T11:39:17;152034.63;;;18.91;78.22
33422;BME280;19763;55.798;37.782;2023-05-22T11:41:42;152042.34;;;18.94;78.79
33422;BME280;19763;55.798;37.782;2023-05-22T11:44:08;152100.41;;;19.18;78.89
33422;BME280;19763;55.798;37.782;2023-05-22T11:46:34;152087.47;;;19.12;77.83
33422;BME280;19763;55.798;37.782;2023-05-22T11:49:00;152097.81;;;19.17;78.85
33422;BME280;19763;55.798;37.782;2023-05-22T11:51:26;152158.47;;;19.41;78.33
33422;BME280;19763;55.798;37.782;2023-05-22T11:53:53;152183.00;;;19.51;78.06
33422;BME280;19763;55.798;37.782;2023-05-22T11:56:19;152204.94;;;19.59;79.01
33422;BME280;19763;55.798;37.782;2023-05-22T11:58:50;152174.00;;;19.47;75.36
33422;BME280;19763;55.798;37.782;2023-05-22T12:01:16;152136.53;;;19.32;75.24
33422;BME280;19763;55.798;37.782;2023-05-22T12:03:42;152179.13;;;19.49;75.18
33422;BME280;19763;55.798;37.782;2023-05-22T12:06:08;152201.06;;;19.58;75.09
33422;BME280;19763;55.798;37.782;2023-05-22T12:08:33;152251.41;;;19.78;75.47
33422;BME280;19763;55.798;37.782;2023-05-22T12:10:59;152290.19;;;19.93;75.65
33422;BME280;19763;55.798;37.782;2023-05-22T12:13:26;152325.06;;;20.07;75.26
33422;BME280;19763;55.798;37.782;2023-05-22T12:15:53;152334.09;;;20.11;73.84
33422;BME280;19763;55.798;37.782;2023-05-22T12:18:20;152359.97;;;20.21;74.57
33422;BME280;19763;55.798;37.782;2023-05-22T12:20:46;152358.63;;;20.21;74.44
33422;BME280;19763;55.798;37.782;2023-05-22T12:23:22;152359.97;;;20.21;73.97
33422;BME280;19763;55.798;37.782;2023-05-22T12:25:59;152347.03;;;20.16;73.70
33422;BME280;19763;55.798;37.782;2023-05-22T12:28:26;152368.97;;;20.25;72.96
33422;BME280;19763;55.798;37.782;2023-05-22T12:30:53;152363.81;;;20.23;71.71
33422;BME280;19763;55.798;37.782;2023-05-22T12:33:19;152431.00;;;20.49;72.72
33422;BME280;19763;55.798;37.782;2023-05-22T12:35:49;152455.50;;;20.59;70.75
33422;BME280;19763;55.798;37.782;2023-05-22T12:38:19;152472.31;;;20.66;70.48
33422;BME280;19763;55.798;37.782;2023-05-22T12:40:45;152516.25;;;20.83;71.84
33422;BME280;19763;55.798;37.782;2023-05-22T12:43:11;152487.84;;;20.72;70.23
33422;BME280;19763;55.798;37.782;2023-05-22T12:45:37;152514.97;;;20.83;70.12
33422;BME280;19763;55.798;37.782;2023-05-22T12:48:05;152525.31;;;20.87;68.97
33422;BME280;19763;55.798;37.782;2023-05-22T12:50:31;152536.94;;;20.92;70.10
33422;BME280;19763;55.798;37.782;2023-05-22T12:52:56;152525.31;;;20.87;69.73
33422;BME280;19763;55.798;37.782;2023-05-22T12:55:22;152540.81;;;20.93;69.16
33422;BME280;19763;55.798;37.782;2023-05-22T12:57:47;152544.69;;;20.95;66.74
33422;BME280;19763;55.798;37.782;2023-05-22T13:00:13;152524.06;;;20.86;65.63
33422;BME280;19763;55.798;37.782;2023-05-22T13:02:39;152551.16;;;20.97;64.40
33422;BME280;19763;55.798;37.782;2023-05-22T13:05:05;152589.91;;;21.13;65.43
33422;BME280;19763;55.798;37.782;2023-05-22T13:07:31;152558.91;;;21.00;64.69
33422;BME280;19763;55.798;37.782;2023-05-22T13:09:56;152540.81;;;20.93;64.99